Kuujjuaq, Canada
Current Conditions -  °F | °C
As of 11:00 PM on Wednesday 28 Jan 2015 (Local Time) from CYVP Reporting Station
Light Snow Light Snow  
Wind Chill: -27°   Ceiling: 7000
Heat Index: -9°   Visibility: 10mi
Dew Point: -17°   Wind: 9mph
Humidity: 71%   Direction: 220°SW
Pressure: 29.86"   Gusts: NA
Location:  58.22°N, 68.37°W
Report Text: CYVP 290400Z 22008KT 10SM -SN BKN070 M23/M27 A2986 RMK AC7 SLP116
Loading
Personal Weather Stations






























Interactive Weather Map New forecast layout! Learn more

10-Day Weather Forecast

Advertisements
Track Severe Weather on mobile